• Join FlightAware (Why Join?)
  • Login
  • US Flag 
03:45PM EDT


 

Airport Tracker/Info


-or-


 

Live Flight TrackerFlight Track Log ✈ UAE747 ✈ 08-May-2013 ✈ OMDB / DXB - DTTA / TUN

Flight Track Log - Related Links

Times and Time Zones

All times are in EDT time to prevent confusion due to time zone crossing. See the UAE747 flight status page for this flight to view local times or setup timezone preferences in your user account.

Time Position Orientation Groundspeed Altitude Reporting Facility
EDT Latitude Longitude Course Direction KTS MPH feet Rate Location/Type
02:20AM 25.2640 55.3520 56° Northeast 167 192 400  Level FlightAware
02:21AM 25.2720 55.3360 299° West 165 190 800 1,200 Climbing FlightAware
02:21AM 25.2860 55.3110 302° West 168 193 1,600 1,200 Climbing FlightAware
02:22AM 25.2960 55.2930 302° West 187 215 1,900 720 Climbing FlightAware
02:22AM 25.2990 55.2760 281° West 208 239 2,100 2,280 Climbing FlightAware
02:24AM 25.3797 55.1077 298° West  Level Estimated
02:25AM 25.4289 55.0045 298° West  Level Estimated
02:26AM 25.4781 54.9012 298° West  Level Estimated
02:27AM 25.5255 54.8017 298° West  Level Estimated
02:28AM 25.5762 54.6947 298° West  Level Estimated
02:28AM 25.3080 54.6660 298° West 371 427 17,100  Level FlightAware
02:29AM 25.3270 54.5920 286° West 378 435 18,800 2,040 Climbing FlightAware
02:30AM 25.3580 54.4640 285° West 401 461 20,900 1,860 Climbing FlightAware
02:31AM 25.3810 54.3690 285° West 414 476 22,400 1,800 Climbing FlightAware
02:31AM 25.4000 54.2900 285° West 428 493 23,500 1,920 Climbing FlightAware
02:32AM 25.4320 54.1590 285° West 439 505 25,500 2,040 Climbing FlightAware
02:33AM 25.4540 54.0680 285° West 443 510 26,900 1,680 Climbing FlightAware
02:34AM 25.4770 53.9750 285° West 455 524 27,900 1,620 Climbing FlightAware
02:34AM 25.4980 53.8890 285° West 458 527 29,100 2,400 Climbing FlightAware
02:35AM 25.5210 53.7930 285° West 440 506 31,300 2,280 Climbing FlightAware
02:36AM 25.5370 53.7230 284° West 428 493 32,000 420 Climbing FlightAware
02:37AM 25.5630 53.6090 284° West 428 493 32,000  Level FlightAware
02:38AM 25.5910 53.4990 286° West 434 499 32,000  Level FlightAware
02:38AM 25.6060 53.4270 283° West 434 499 32,000  Level FlightAware
02:39AM 25.6350 53.3090 285° West 437 503 32,000  Level FlightAware
02:40AM 25.6730 53.2190 295° West 443 510 32,000  Level FlightAware
02:40AM 25.7110 53.1480 301° West 449 517 32,000  Level FlightAware
02:41AM 25.7520 53.0560 296° West 441 507 32,000  Level FlightAware
02:42AM 25.7850 52.9370 287° West 427 491 32,000  Level FlightAware
02:43AM 25.8080 52.7770 279° West 430 495 32,000  Level FlightAware
02:44AM 25.8240 52.6630 279° West 435 501 32,000 180 Level FlightAware
02:45AM 25.8390 52.5620 279° West 436 502 32,300 480 Climbing FlightAware
02:45AM 25.8570 52.4760 283° West 450 518 32,700 1,260 Climbing FlightAware
02:46AM 25.8890 52.3880 292° West 434 499 34,000 900 Climbing FlightAware
02:47AM 25.9320 52.2980 298° West 448 516 34,000  Level FlightAware
02:48AM 25.9710 52.2190 299° West 449 517 34,000  Level FlightAware
02:48AM 26.0110 52.1360 298° West 445 512 34,000  Level FlightAware
02:49AM 26.0530 52.0470 298° West 444 511 34,000  Level FlightAware
02:50AM 26.0930 51.9650 299° West 444 511 34,000  Level FlightAware
02:50AM 26.1330 51.8820 298° West 444 511 34,000  Level FlightAware
02:51AM 26.1730 51.7970 298° West 446 513 34,000  Level FlightAware
02:52AM 26.2060 51.7260 297° West 444 511 34,000  Level FlightAware
02:53AM 26.2800 51.5600 296° West 445 512 34,000  Level FlightAware
02:54AM 26.3180 51.4750 297° West 450 518 34,000  Level FlightAware
02:54AM 26.3560 51.3910 297° West 457 526 34,000 420 Level FlightAware
02:55AM 26.3980 51.2910 295° West 456 525 34,600 1,380 Climbing FlightAware
02:56AM 26.4310 51.2090 294° West 431 496 36,000 840 Climbing FlightAware
02:57AM 26.4760 51.0970 294° West 442 509 36,000  Level FlightAware
02:57AM 26.5090 51.0140 294° West 437 503 36,000  Level FlightAware
02:58AM 26.5460 50.9210 294° West 433 498 36,000  Level FlightAware
02:59AM 26.5740 50.8380 291° West 431 496 36,000  Level FlightAware
02:59AM 26.6080 50.7390 291° West 434 499 36,000  Level FlightAware
03:00AM 26.6370 50.6520 290° West 435 501 36,000  Level FlightAware
03:01AM 26.6640 50.5660 289° West 435 501 36,000  Level FlightAware
03:02AM 26.6980 50.4750 293° West 434 499 36,000  Level FlightAware
03:02AM 26.7310 50.3740 290° West 36,000  Level FlightAware
03:04AM 26.7550 50.2150 280° West 36,000  Level FlightAware
03:04AM 26.7530 50.1190 269° West 421 484 36,000  Level FlightAware
03:05AM 26.7510 50.0490 268° West 421 484 36,000  Level FlightAware
03:06AM 26.7480 49.9380 268° West 425 489 36,000  Level FlightAware
03:06AM 26.7440 49.8300 268° West 429 494 36,000  Level FlightAware
03:07AM 26.7420 49.7410 269° West 430 495 36,000  Level FlightAware
03:08AM 26.7390 49.6620 268° West 430 495 36,000  Level FlightAware
03:09AM 26.7360 49.5560 268° West 428 493 36,000  Level FlightAware
03:09AM 26.7330 49.4700 268° West 426 490 36,000  Level FlightAware
03:10AM 26.7290 49.3660 268° West 430 495 36,000  Level FlightAware
03:10AM 26.7270 49.3020 268° West 432 497 36,000  Level FlightAware
03:11AM 26.7230 49.1820 268° West 431 496 36,000  Level FlightAware
03:12AM 26.7200 49.1080 267° West 431 496 36,000  Level FlightAware
03:13AM 26.7160 48.9990 268° West 432 497 36,000  Level FlightAware
03:13AM 26.7120 48.8990 267° West 431 496 36,000  Level FlightAware
03:14AM 26.7090 48.8110 268° West 426 490 36,000  Level FlightAware
03:15AM 26.7050 48.7100 267° West 425 489 36,000  Level FlightAware
03:16AM 26.7020 48.6220 268° West 425 489 36,000  Level FlightAware
03:16AM 26.6980 48.5360 267° West 425 489 36,000  Level FlightAware
03:17AM 26.6940 48.4350 267° West 427 491 36,000  Level FlightAware
03:18AM 26.6910 48.3500 268° West 421 484 36,000  Level FlightAware
03:18AM 26.6860 48.2500 267° West 420 483 36,000  Level FlightAware
03:19AM 26.6830 48.1680 268° West 421 484 36,000  Level FlightAware
03:22AM 26.7238 47.8705 279° West  Level FlightAware Approximate
03:23AM 26.7401 47.7498 279° West  Level FlightAware Approximate
03:23AM 26.7120 47.7230 279° West 415 478 36,000  Level FlightAware
03:23AM 26.7270 47.6260 280° West 415 478 36,000  Level FlightAware
03:24AM 26.7410 47.5410 280° West 411 473 36,000  Level FlightAware
03:25AM 26.7560 47.4470 280° West 408 470 36,000  Level FlightAware
03:25AM 26.7690 47.3620 280° West 409 471 36,000  Level FlightAware
03:26AM 26.7810 47.2810 279° West 409 471 36,000  Level FlightAware
03:27AM 26.7960 47.1880 280° West 405 466 36,000  Level FlightAware
03:27AM 26.8090 47.1050 280° West 407 468 36,000  Level FlightAware
03:28AM 26.8230 47.0110 279° West 407 468 36,000  Level FlightAware
03:29AM 26.8360 46.9280 280° West 408 470 36,000  Level FlightAware
03:30AM 26.8480 46.8450 279° West 408 470 36,000  Level FlightAware
03:30AM 26.8630 46.7510 280° West 407 468 36,000  Level FlightAware
03:31AM 26.8750 46.6700 279° West 405 466 36,000  Level FlightAware
03:32AM 26.8880 46.5860 280° West 406 467 36,000  Level FlightAware
03:32AM 26.9020 46.4920 280° West 405 466 36,000  Level FlightAware
03:33AM 26.9140 46.4090 279° West 405 466 36,000  Level FlightAware
03:34AM 26.9280 46.3170 280° West 404 465 36,000  Level FlightAware
03:34AM 26.9410 46.2320 280° West 402 463 36,000  Level FlightAware
03:35AM 26.9690 46.1440 290° West 399 459 36,000  Level FlightAware
03:36AM 26.9940 46.0660 290° West 398 458 36,000  Level FlightAware
03:37AM 27.0200 45.9860 290° West 396 456 36,000  Level FlightAware
03:37AM 27.0480 45.9010 290° West 394 453 36,000  Level FlightAware
03:38AM 27.0740 45.8240 291° West 394 453 36,000  Level FlightAware
03:39AM 27.1080 45.7180 290° West 392 451 36,000  Level FlightAware
03:40AM 27.1350 45.6350 290° West 392 451 36,000  Level FlightAware
03:40AM 27.1610 45.5550 290° West 394 453 36,000  Level FlightAware
03:41AM 27.1830 45.4840 289° West 395 455 36,000  Level FlightAware
03:42AM 27.2040 45.4180 290° West 395 455 36,000  Level FlightAware
03:42AM 27.2240 45.3520 289° West 395 455 36,000  Level FlightAware
03:43AM 27.2670 45.2280 291° West 36,000  Level FlightAware
03:46AM 27.3724 44.9936 297° West  Level Estimated
03:47AM 27.4165 44.8951 297° West  Level Estimated
03:48AM 27.4605 44.7965 297° West  Level Estimated
03:49AM 27.5045 44.6979 297° West  Level Estimated
03:50AM 27.5484 44.5991 297° West  Level Estimated
03:51AM 27.5922 44.5003 297° West  Level Estimated
03:52AM 27.6359 44.4015 297° West  Level Estimated
03:53AM 27.6796 44.3025 297° West  Level Estimated
03:54AM 27.7232 44.2034 296° West  Level Estimated
03:55AM 27.7668 44.1043 296° West  Level Estimated
03:56AM 27.8102 44.0051 296° West  Level Estimated
03:57AM 27.8536 43.9058 296° West  Level Estimated
03:58AM 27.8970 43.8065 296° West  Level Estimated
03:59AM 27.9402 43.7071 296° West  Level Estimated
04:00AM 27.9834 43.6075 296° West  Level Estimated
04:01AM 28.0265 43.5079 296° West  Level Estimated
04:02AM 28.0696 43.4082 296° West  Level Estimated
04:03AM 28.1126 43.3085 296° West  Level Estimated
04:04AM 28.1555 43.2086 296° West  Level Estimated
04:05AM 28.1983 43.1087 296° West  Level Estimated
04:06AM 28.2410 43.0087 296° West  Level Estimated
04:07AM 28.2837 42.9086 296° West  Level Estimated
04:08AM 28.3263 42.8085 296° West  Level Estimated
04:09AM 28.3689 42.7082 296° West  Level Estimated
04:10AM 28.4113 42.6079 296° West  Level Estimated
04:11AM 28.4537 42.5075 296° West  Level Estimated
04:12AM 28.4960 42.4071 296° West  Level Estimated
04:13AM 28.5383 42.3065 296° West  Level Estimated
04:14AM 28.5805 42.2058 296° West  Level Estimated
04:15AM 28.6225 42.1051 295° West  Level Estimated
04:16AM 28.6646 42.0043 295° West  Level Estimated
04:17AM 28.7065 41.9035 295° West  Level Estimated
04:18AM 28.7484 41.8025 295° West  Level Estimated
04:19AM 28.7902 41.7014 295° West  Level Estimated
04:20AM 28.8319 41.6003 295° West  Level Estimated
04:21AM 28.8735 41.4991 295° West  Level Estimated
04:22AM 28.9151 41.3978 295° West  Level Estimated
04:23AM 28.9566 41.2964 295° West  Level Estimated
04:24AM 28.9980 41.1950 295° West  Level Estimated
04:25AM 29.0393 41.0935 295° West  Level Estimated
04:26AM 29.0806 40.9919 295° West  Level Estimated
04:27AM 29.1218 40.8902 295° West  Level Estimated
04:28AM 29.1629 40.7884 295° West  Level Estimated
04:29AM 29.2039 40.6865 295° West  Level Estimated
04:30AM 29.2449 40.5846 295° West  Level Estimated
04:31AM 29.2858 40.4826 295° West  Level Estimated
04:32AM 29.3266 40.3805 295° West  Level Estimated
04:33AM 29.3673 40.2783 295° West  Level Estimated
04:34AM 29.4079 40.1760 295° West  Level Estimated
04:35AM 29.4485 40.0737 294° West  Level Estimated
04:36AM 29.4890 39.9712 294° West  Level Estimated
04:37AM 29.5294 39.8687 294° West  Level Estimated
04:38AM 29.5697 39.7661 294° West  Level Estimated
04:39AM 29.6100 39.6635 294° West  Level Estimated
04:40AM 29.6502 39.5607 294° West  Level Estimated
04:41AM 29.6902 39.4579 294° West  Level Estimated
04:42AM 29.7302 39.3549 294° West  Level Estimated
04:43AM 29.7702 39.2519 294° West  Level Estimated
04:44AM 29.8100 39.1489 294° West  Level Estimated
04:45AM 29.8498 39.0457 294° West  Level Estimated
04:46AM 29.8895 38.9424 294° West  Level Estimated
04:47AM 29.9291 38.8391 294° West  Level Estimated
04:48AM 29.9686 38.7357 294° West  Level Estimated
04:49AM 30.0081 38.6322 294° West  Level Estimated
04:50AM 30.0474 38.5286 294° West  Level Estimated
04:51AM 30.0867 38.4250 294° West  Level Estimated
04:52AM 30.1259 38.3212 294° West  Level Estimated
04:53AM 30.1651 38.2174 294° West  Level Estimated
04:53AM 29.0950 37.2850 294° West 374 430 38,000  Level FlightAware
04:53AM 29.0940 37.2230 269° West 374 430 38,000  Level FlightAware
04:54AM 29.0930 37.1390 269° West 374 430 38,000  Level FlightAware
04:55AM 29.0920 37.0710 269° West 374 430 38,000  Level FlightAware
04:55AM 29.0910 37.0040 269° West 374 430 38,000  Level FlightAware
04:56AM 29.0900 36.9370 269° West 374 430 38,000  Level FlightAware
04:57AM 29.0890 36.8520 269° West 374 430 38,000  Level FlightAware
04:58AM 29.0880 36.7850 269° West 374 430 38,000  Level FlightAware
04:58AM 29.0870 36.7180 269° West 374 430 38,000  Level FlightAware
04:59AM 29.0860 36.6510 269° West 374 430 38,000  Level FlightAware
05:00AM 29.0850 36.5830 269° West 374 430 38,000  Level FlightAware
05:00AM 29.0840 36.5160 269° West 374 430 38,000  Level FlightAware
05:01AM 29.0820 36.4320 268° West 374 430 38,000  Level FlightAware
05:02AM 29.0810 36.3640 269° West 374 430 38,000  Level FlightAware
05:02AM 29.0800 36.2970 269° West 374 430 38,000  Level FlightAware
05:05AM 29.1728 36.0827 296° West  Level Estimated
05:06AM 29.2162 35.9821 296° West  Level Estimated
05:07AM 29.2595 35.8815 296° West  Level Estimated
05:08AM 29.3028 35.7807 296° West  Level Estimated
05:09AM 29.3459 35.6799 296° West  Level Estimated
05:10AM 29.3890 35.5790 296° West  Level Estimated
05:11AM 29.4320 35.4780 296° West  Level Estimated
05:12AM 29.4750 35.3769 296° West  Level Estimated
05:13AM 29.5178 35.2757 296° West  Level Estimated
05:14AM 29.5606 35.1745 296° West  Level Estimated
05:15AM 29.6033 35.0731 296° West  Level Estimated
05:16AM 29.6460 34.9717 296° West  Level Estimated
05:17AM 29.6885 34.8702 296° West  Level Estimated
05:18AM 29.7310 34.7686 296° West  Level Estimated
05:19AM 29.7734 34.6669 296° West  Level Estimated
05:20AM 29.8157 34.5651 296° West  Level Estimated
05:21AM 29.8580 34.4632 296° West  Level Estimated
05:22AM 29.9001 34.3613 296° West  Level Estimated
05:23AM 29.9422 34.2593 295° West  Level Estimated
05:24AM 29.9842 34.1571 295° West  Level Estimated
05:25AM 30.0261 34.0549 295° West  Level Estimated
05:26AM 30.0680 33.9526 295° West  Level Estimated
05:27AM 30.1098 33.8503 295° West  Level Estimated
05:28AM 30.1515 33.7478 295° West  Level Estimated
05:29AM 30.1931 33.6452 295° West  Level Estimated
05:30AM 30.2346 33.5426 295° West  Level Estimated
05:31AM 30.2761 33.4399 295° West  Level Estimated
05:32AM 30.3174 33.3371 295° West  Level Estimated
05:33AM 30.3587 33.2341 295° West  Level Estimated
05:34AM 30.3999 33.1312 295° West  Level Estimated
05:35AM 30.4410 33.0281 295° West  Level Estimated
05:36AM 30.4821 32.9249 295° West  Level Estimated
05:37AM 30.5231 32.8217 295° West  Level Estimated
05:38AM 30.5640 32.7183 295° West  Level Estimated
05:39AM 30.6048 32.6149 295° West  Level Estimated
05:40AM 30.6455 32.5114 295° West  Level Estimated
05:41AM 30.6861 32.4078 295° West  Level Estimated
05:42AM 30.7267 32.3041 294° West  Level Estimated
05:43AM 30.7672 32.2004 294° West  Level Estimated
05:44AM 30.8076 32.0965 294° West  Level Estimated
05:45AM 30.8479 31.9926 294° West  Level Estimated
05:46AM 30.8881 31.8885 294° West  Level Estimated
05:47AM 30.9282 31.7844 294° West  Level Estimated
05:48AM 30.9683 31.6802 294° West  Level Estimated
05:49AM 31.0083 31.5759 294° West  Level Estimated
05:50AM 31.0482 31.4715 294° West  Level Estimated
05:51AM 31.0880 31.3671 294° West  Level Estimated
05:52AM 31.1277 31.2625 294° West  Level Estimated
05:53AM 31.1673 31.1579 294° West  Level Estimated
05:54AM 31.2069 31.0531 294° West  Level Estimated
05:55AM 31.2463 30.9483 294° West  Level Estimated
05:56AM 31.2857 30.8434 294° West  Level Estimated
05:57AM 31.3256 30.7368 294° West  Level Estimated
05:58AM 31.3655 30.6301 294° West  Level Estimated
05:59AM 31.4052 30.5233 294° West  Level Estimated
06:00AM 31.4448 30.4164 294° West  Level Estimated
06:01AM 31.4844 30.3094 293° West  Level Estimated
06:02AM 31.5238 30.2023 293° West  Level Estimated
06:03AM 31.5632 30.0952 293° West  Level Estimated
06:04AM 31.6025 29.9879 293° West  Level Estimated
06:05AM 31.6417 29.8806 293° West  Level Estimated
06:06AM 31.6808 29.7732 293° West  Level Estimated
06:07AM 31.7198 29.6656 293° West  Level Estimated
06:08AM 31.7587 29.5580 293° West  Level Estimated
06:09AM 31.7976 29.4503 293° West  Level Estimated
06:10AM 31.8363 29.3425 293° West  Level Estimated
06:11AM 31.8749 29.2347 293° West  Level Estimated
06:12AM 31.9135 29.1267 293° West  Level Estimated
06:13AM 31.9520 29.0186 293° West  Level Estimated
06:14AM 31.9904 28.9105 293° West  Level Estimated
06:15AM 32.0286 28.8022 293° West  Level Estimated
06:16AM 32.0668 28.6939 293° West  Level Estimated
06:17AM 32.1049 28.5855 293° West  Level Estimated
06:18AM 32.1429 28.4769 292° West  Level Estimated
06:19AM 32.1809 28.3683 292° West  Level Estimated
06:20AM 32.2187 28.2596 292° West  Level Estimated
06:21AM 32.2564 28.1509 292° West  Level Estimated
06:22AM 32.2940 28.0420 292° West  Level Estimated
06:23AM 32.3316 27.9330 292° West  Level Estimated
06:24AM 32.3690 27.8239 292° West  Level Estimated
06:25AM 32.4064 27.7148 292° West  Level Estimated
06:26AM 32.4437 27.6056 292° West  Level Estimated
06:27AM 32.4808 27.4962 292° West  Level Estimated
06:28AM 32.5179 27.3868 292° West  Level Estimated
06:29AM 32.5549 27.2773 292° West  Level Estimated
06:30AM 32.5918 27.1677 292° West  Level Estimated
06:31AM 32.6286 27.0580 292° West  Level Estimated
06:32AM 32.6652 26.9482 292° West  Level Estimated
06:33AM 32.7018 26.8384 292° West  Level Estimated
06:34AM 32.7383 26.7284 292° West  Level Estimated
06:35AM 32.7747 26.6183 292° West  Level Estimated
06:36AM 32.8111 26.5082 291° West  Level Estimated
06:37AM 32.8473 26.3980 291° West  Level Estimated
06:38AM 32.8834 26.2876 291° West  Level Estimated
06:39AM 32.9194 26.1772 291° West  Level Estimated
06:40AM 32.9553 26.0667 291° West  Level Estimated
06:41AM 32.9911 25.9562 291° West  Level Estimated
06:42AM 33.0269 25.8455 291° West  Level Estimated
06:43AM 33.0625 25.7347 291° West  Level Estimated
06:44AM 33.0980 25.6238 291° West  Level Estimated
06:45AM 33.1335 25.5129 291° West  Level Estimated
06:46AM 33.1688 25.4018 291° West  Level Estimated
06:47AM 33.2040 25.2907 291° West  Level Estimated
06:48AM 33.2392 25.1795 291° West  Level Estimated
06:49AM 33.2742 25.0682 291° West  Level Estimated
06:50AM 33.3092 24.9568 291° West  Level Estimated
06:51AM 33.3440 24.8453 291° West  Level Estimated
06:52AM 33.3787 24.7337 290° West  Level Estimated
06:53AM 33.4134 24.6221 290° West  Level Estimated
06:54AM 33.4479 24.5103 290° West  Level Estimated
06:54AM 34.7130 22.6240 290° West 449 517 40,000  Level FlightAware
06:54AM 34.7340 22.5210 284° West 449 517 40,000  Level FlightAware
06:55AM 34.7510 22.4380 284° West 449 517 40,000  Level FlightAware
06:56AM 34.7680 22.3550 284° West 449 517 40,000  Level FlightAware
06:56AM 34.7850 22.2710 284° West 449 517 40,000  Level FlightAware
06:57AM 34.8020 22.1880 284° West 449 517 40,000  Level FlightAware
06:58AM 34.8240 22.0830 284° West 449 517 40,000  Level FlightAware
06:59AM 34.8730 21.8940 288° West 452 520 40,000  Level FlightAware
06:59AM 34.8950 21.7930 285° West 452 520 40,000  Level FlightAware
07:00AM 34.9160 21.6900 284° West 452 520 40,000  Level FlightAware
07:01AM 34.9330 21.6060 284° West 452 520 40,000  Level FlightAware
07:01AM 34.9510 21.5220 285° West 452 520 40,000  Level FlightAware
07:02AM 34.9680 21.4380 284° West 452 520 40,000  Level FlightAware
07:03AM 34.9850 21.3530 284° West 452 520 40,000  Level FlightAware
07:04AM 35.0060 21.2480 284° West 452 520 40,000  Level FlightAware
07:04AM 35.0240 21.1640 285° West 452 520 40,000  Level FlightAware
07:05AM 35.0410 21.0800 284° West 452 520 40,000  Level FlightAware
07:06AM 35.0580 20.9950 284° West 452 520 40,000  Level FlightAware
07:06AM 35.0750 20.9110 284° West 452 520 40,000  Level FlightAware
07:07AM 35.0970 20.8060 284° West 452 520 40,000  Level FlightAware
07:08AM 35.1600 20.5140 285° West 455 524 40,000  Level FlightAware
07:09AM 35.1820 20.4140 285° West 449 517 40,000  Level FlightAware
07:09AM 35.2000 20.3100 282° West 449 517 40,000  Level FlightAware
07:10AM 35.2150 20.2250 282° West 449 517 40,000  Level FlightAware
07:11AM 35.2300 20.1410 282° West 449 517 40,000  Level FlightAware
07:11AM 35.2440 20.0560 281° West 449 517 40,000  Level FlightAware
07:12AM 35.2590 19.9720 282° West 449 517 40,000  Level FlightAware
07:13AM 35.3080 19.7820 288° West 444 511 40,000  Level FlightAware
07:14AM 35.3340 19.6490 284° West 445 512 40,000  Level FlightAware
07:14AM 35.3510 19.5540 282° West 445 512 40,000  Level FlightAware
07:15AM 35.3650 19.4700 282° West 445 512 40,000  Level FlightAware
07:16AM 35.3800 19.3860 282° West 445 512 40,000  Level FlightAware
07:17AM 35.4210 19.2010 285° West 443 510 40,000  Level FlightAware
07:18AM 35.4390 19.1030 283° West 443 510 40,000  Level FlightAware
07:18AM 35.4550 19.0190 283° West 443 510 40,000  Level FlightAware
07:19AM 35.4780 18.8990 283° West 438 504 40,000  Level FlightAware
07:20AM 35.5030 18.7620 283° West 441 507 40,000  Level FlightAware
07:21AM 35.5210 18.6630 283° West 442 509 40,000  Level FlightAware
07:21AM 35.5390 18.5710 284° West 448 516 40,000  Level FlightAware
07:22AM 35.5610 18.4520 283° West 445 512 40,000  Level FlightAware
07:23AM 35.5800 18.3480 283° West 441 507 40,000  Level FlightAware
07:23AM 35.5980 18.2460 282° West 441 507 40,000  Level FlightAware
07:24AM 35.6170 18.1420 283° West 439 505 40,000  Level FlightAware
07:25AM 35.6350 18.0440 283° West 439 505 40,000  Level FlightAware
07:25AM 35.6540 17.9350 282° West 439 505 40,000  Level FlightAware
07:26AM 35.6690 17.8540 283° West 440 506 40,000  Level FlightAware
07:27AM 35.6920 17.7220 282° West 439 505 40,000  Level FlightAware
07:28AM 35.7100 17.6240 283° West 442 509 40,000  Level FlightAware
07:28AM 35.7270 17.5240 282° West 444 511 40,000  Level FlightAware
07:29AM 35.7460 17.4160 282° West 441 507 40,000  Level FlightAware
07:30AM 35.7630 17.3200 282° West 439 505 40,000  Level FlightAware
07:30AM 35.7820 17.2070 282° West 439 505 40,000  Level FlightAware
07:31AM 35.7990 17.1080 282° West 439 505 40,000  Level FlightAware
07:32AM 35.8180 16.9990 282° West 441 507 40,000  Level FlightAware
07:32AM 35.8350 16.9010 282° West 440 506 40,000  Level FlightAware
07:33AM 35.8510 16.8040 282° West 438 504 40,000  Level FlightAware
07:34AM 35.8690 16.6960 282° West 440 506 40,000  Level FlightAware
07:35AM 35.8880 16.5820 282° West 441 507 40,000  Level FlightAware
07:35AM 35.9050 16.4830 282° West 439 505 40,000  Level FlightAware
07:36AM 35.9200 16.3880 281° West 436 502 40,000  Level FlightAware
07:37AM 35.9380 16.2820 282° West 432 497 40,000  Level FlightAware
07:37AM 35.9540 16.1820 281° West 429 494 40,000  Level FlightAware
07:38AM 35.9700 16.0870 282° West 428 493 40,000  Level FlightAware
07:39AM 35.9870 15.9790 281° West 426 490 40,000  Level FlightAware
07:39AM 36.0030 15.8830 282° West 425 489 40,000  Level FlightAware
07:40AM 36.0200 15.7760 281° West 426 490 40,000  Level FlightAware
07:41AM 36.0340 15.6830 281° West 427 491 40,000  Level FlightAware
07:42AM 36.0500 15.5870 282° West 429 494 40,000  Level FlightAware
07:42AM 36.0670 15.4740 281° West 434 499 40,000  Level FlightAware
07:43AM 36.0830 15.3760 281° West 434 499 40,000  Level FlightAware
07:44AM 36.0980 15.2780 281° West 434 499 40,000  Level FlightAware
07:44AM 36.1140 15.1720 281° West 434 499 40,000  Level FlightAware
07:45AM 36.1290 15.0740 281° West 437 503 40,000  Level FlightAware
07:46AM 36.1460 14.9650 281° West 433 498 40,000  Level FlightAware
07:46AM 36.1610 14.8640 280° West 431 496 40,000  Level FlightAware
07:47AM 36.1770 14.7570 281° West 433 498 40,000  Level FlightAware
07:48AM 36.1920 14.6620 281° West 432 497 40,000  Level FlightAware
07:49AM 36.2060 14.5640 280° West 430 495 40,000  Level FlightAware
07:49AM 36.2230 14.4550 281° West 428 493 40,000  Level FlightAware
07:50AM 36.2370 14.3570 280° West 427 491 40,000  Level FlightAware
07:51AM 36.2530 14.2510 281° West 425 489 40,000  Level FlightAware
07:51AM 36.2670 14.1540 280° West 425 489 40,000  Level FlightAware
07:52AM 36.2800 14.0610 280° West 426 490 40,000  Level FlightAware
07:53AM 36.2940 13.9620 280° West 428 493 40,000  Level FlightAware
07:53AM 36.3100 13.8540 280° West 427 491 40,000  Level FlightAware
07:54AM 36.3230 13.7580 280° West 426 490 40,000  Level FlightAware
07:55AM 36.3390 13.6500 280° West 426 490 40,000  Level FlightAware
07:56AM 36.3540 13.5400 280° West 428 493 40,000  Level FlightAware
07:56AM 36.3670 13.4440 280° West 431 496 40,000  Level FlightAware
07:57AM 36.3810 13.3460 280° West 429 494 40,000  Level FlightAware
07:58AM 36.3950 13.2400 279° West 426 490 40,000  Level FlightAware
07:58AM 36.4090 13.1430 280° West 427 491 40,000  Level FlightAware
07:59AM 36.4240 13.0320 280° West 427 491 40,000  Level FlightAware
08:00AM 36.4340 12.9520 279° West 427 491 40,000  Level FlightAware
08:00AM 36.4500 12.8380 280° West 427 491 40,000  Level FlightAware
08:01AM 36.4630 12.7340 279° West 429 494 40,000 -180 Level FlightAware
08:02AM 36.4760 12.6360 279° West 428 493 39,800 -600 Descending FlightAware
08:03AM 36.4890 12.5390 279° West 432 497 39,200 -1,200 Descending FlightAware
08:03AM 36.5020 12.4410 279° West 425 489 38,200 -2,340 Descending FlightAware
08:04AM 36.5180 12.3320 280° West 423 487 35,900 -3,000 Descending FlightAware
08:05AM 36.5370 12.2270 283° West 425 489 33,700 -2,760 Descending FlightAware
08:05AM 36.5520 12.1350 281° West 432 497 32,000 -2,700 Descending FlightAware
08:06AM 36.5690 12.0330 282° West 433 498 30,100 -2,940 Descending FlightAware
08:07AM 36.5870 11.9240 282° West 421 484 27,900 -2,940 Descending FlightAware
08:07AM 36.6020 11.8290 281° West 419 482 26,000 -2,640 Descending FlightAware
08:08AM 36.6190 11.7270 282° West 407 468 24,200 -2,520 Descending FlightAware
08:09AM 36.6340 11.6340 281° West 401 461 22,500 -2,580 Descending FlightAware
08:10AM 36.6510 11.5300 282° West 391 450 20,600 -2,340 Descending FlightAware
08:10AM 36.6640 11.4450 281° West 380 437 19,200 -2,280 Descending FlightAware
08:11AM 36.6780 11.3590 281° West 375 432 17,600 -2,400 Descending FlightAware
08:12AM 36.6920 11.2740 282° West 371 427 16,000 -2,280 Descending FlightAware
08:12AM 36.7070 11.1840 282° West 365 420 14,400 -2,160 Descending FlightAware
08:13AM 36.7200 11.1000 281° West 359 413 13,000 -1,440 Descending FlightAware
08:14AM 36.7340 11.0140 282° West 322 371 12,400 -900 Descending FlightAware
08:14AM 36.7450 10.9450 281° West 282 325 11,800 -1,440 Descending FlightAware
08:15AM 36.7550 10.8830 281° West 272 313 10,500 -2,100 Descending FlightAware
08:16AM 36.7620 10.8390 281° West 272 313 9,400 -2,400 Descending FlightAware
08:16AM 36.7690 10.8000 283° West 275 316 8,300 -2,100 Descending FlightAware
08:17AM 36.7760 10.7540 281° West 263 303 7,500 -1,920 Descending FlightAware
08:17AM 36.7840 10.7100 283° West 254 292 6,400 -2,220 Descending FlightAware
08:17AM 36.7910 10.6730 283° West 251 289 5,500 -1,860 Descending FlightAware
08:18AM 36.7980 10.6340 283° West 248 285 4,700 -1,500 Descending FlightAware
08:18AM 36.7990 10.6200 275° West 250 288 4,500 -1,380 Descending FlightAware
08:19AM 36.7910 10.5760 257° West 245 282 3,800 -1,320 Descending FlightAware
08:19AM 36.7840 10.5430 255° West 240 276 3,300 -780 Descending FlightAware
08:20AM 36.7750 10.5060 253° West 211 243 3,100 -300 Descending FlightAware
08:20AM 36.7710 10.4880 254° West 195 224 3,100 -120 Level FlightAware
08:21AM 36.7780 10.4450 282° West 177 204 3,000 -300 Descending FlightAware
08:21AM 36.7900 10.4100 293° West 163 188 2,700 -720 Descending FlightAware
08:22AM 36.7970 10.3900 294° West 163 188 2,300 -960 Descending FlightAware
08:22AM 36.8080 10.3550 291° West 145 167 1,700 -720 Descending FlightAware
08:23AM 36.8170 10.3280 293° West 137 158 1,300 -660 Descending FlightAware
08:24AM 36.8260 10.3030 294° West 135 155 900 -720 Descending FlightAware
08:24AM 36.8270 10.2990 287° West 135 155 900 -780 Level FlightAware
08:24AM 36.8360 10.2720 293° West 136 157 400 -480 Descending FlightAware
08:25AM 36.8430 10.2530 295° West 136 157 400  Level FlightAware
08:25AM 36.8370 10.2690 115° Southeast 137 158 -4,800 Descending FlightAware